sensor_id;sensor_type;location;lat;lon;timestamp;P1;durP1;ratioP1;P2;durP2;ratioP2
9156;SDS011;4613;48.392;9.998;2023-04-21T00:02:42;17.45;;;8.95;;
9156;SDS011;4613;48.392;9.998;2023-04-21T00:05:34;16.17;;;9.20;;
9156;SDS011;4613;48.392;9.998;2023-04-21T00:08:23;14.38;;;8.68;;
9156;SDS011;4613;48.392;9.998;2023-04-21T00:11:16;16.80;;;8.77;;
9156;SDS011;4613;48.392;9.998;2023-04-21T00:14:05;15.85;;;9.48;;
9156;SDS011;4613;48.392;9.998;2023-04-21T00:16:55;16.30;;;9.23;;
9156;SDS011;4613;48.392;9.998;2023-04-21T00:19:44;15.33;;;8.40;;
9156;SDS011;4613;48.392;9.998;2023-04-21T00:22:35;17.38;;;9.30;;
9156;SDS011;4613;48.392;9.998;2023-04-21T00:25:24;12.67;;;7.87;;
9156;SDS011;4613;48.392;9.998;2023-04-21T00:28:14;19.67;;;9.23;;
9156;SDS011;4613;48.392;9.998;2023-04-21T00:31:04;15.00;;;8.70;;
9156;SDS011;4613;48.392;9.998;2023-04-21T00:33:55;15.80;;;8.20;;
9156;SDS011;4613;48.392;9.998;2023-04-21T00:36:45;14.90;;;8.13;;
9156;SDS011;4613;48.392;9.998;2023-04-21T00:39:34;15.47;;;9.10;;
9156;SDS011;4613;48.392;9.998;2023-04-21T00:42:24;16.70;;;8.83;;
9156;SDS011;4613;48.392;9.998;2023-04-21T00:45:13;16.27;;;9.10;;
9156;SDS011;4613;48.392;9.998;2023-04-21T00:48:03;13.97;;;8.07;;
9156;SDS011;4613;48.392;9.998;2023-04-21T00:50:52;15.82;;;7.93;;
9156;SDS011;4613;48.392;9.998;2023-04-21T00:53:42;18.03;;;7.73;;
9156;SDS011;4613;48.392;9.998;2023-04-21T00:56:33;14.77;;;7.53;;
9156;SDS011;4613;48.392;9.998;2023-04-21T00:59:23;14.30;;;7.43;;
9156;SDS011;4613;48.392;9.998;2023-04-21T01:02:13;13.27;;;7.50;;
9156;SDS011;4613;48.392;9.998;2023-04-21T01:05:04;12.83;;;7.10;;
9156;SDS011;4613;48.392;9.998;2023-04-21T01:07:57;13.07;;;7.70;;
9156;SDS011;4613;48.392;9.998;2023-04-21T01:10:46;13.30;;;7.23;;
9156;SDS011;4613;48.392;9.998;2023-04-21T01:13:35;14.50;;;7.30;;
9156;SDS011;4613;48.392;9.998;2023-04-21T01:16:25;11.23;;;6.80;;
9156;SDS011;4613;48.392;9.998;2023-04-21T01:19:16;13.50;;;8.03;;
9156;SDS011;4613;48.392;9.998;2023-04-21T01:22:09;15.33;;;6.93;;
9156;SDS011;4613;48.392;9.998;2023-04-21T01:25:00;15.70;;;7.50;;
9156;SDS011;4613;48.392;9.998;2023-04-21T01:27:49;12.97;;;7.43;;
9156;SDS011;4613;48.392;9.998;2023-04-21T01:30:39;12.10;;;6.28;;
9156;SDS011;4613;48.392;9.998;2023-04-21T01:33:28;12.75;;;6.72;;
9156;SDS011;4613;48.392;9.998;2023-04-21T01:36:20;12.20;;;6.40;;
9156;SDS011;4613;48.392;9.998;2023-04-21T01:39:09;10.43;;;6.07;;
9156;SDS011;4613;48.392;9.998;2023-04-21T01:41:59;10.95;;;6.50;;
9156;SDS011;4613;48.392;9.998;2023-04-21T01:44:49;10.80;;;6.87;;
9156;SDS011;4613;48.392;9.998;2023-04-21T01:47:41;20.47;;;6.60;;
9156;SDS011;4613;48.392;9.998;2023-04-21T01:50:31;15.10;;;7.53;;
9156;SDS011;4613;48.392;9.998;2023-04-21T01:53:20;13.33;;;7.23;;
9156;SDS011;4613;48.392;9.998;2023-04-21T01:56:12;14.45;;;7.10;;
9156;SDS011;4613;48.392;9.998;2023-04-21T01:59:02;14.48;;;7.38;;
9156;SDS011;4613;48.392;9.998;2023-04-21T02:01:52;12.85;;;6.25;;
9156;SDS011;4613;48.392;9.998;2023-04-21T02:04:41;10.90;;;7.10;;
9156;SDS011;4613;48.392;9.998;2023-04-21T02:07:30;14.13;;;7.03;;
9156;SDS011;4613;48.392;9.998;2023-04-21T02:10:19;12.35;;;5.97;;
9156;SDS011;4613;48.392;9.998;2023-04-21T02:13:09;13.52;;;6.60;;
9156;SDS011;4613;48.392;9.998;2023-04-21T02:15:59;13.95;;;6.53;;
9156;SDS011;4613;48.392;9.998;2023-04-21T02:18:48;13.15;;;6.25;;
9156;SDS011;4613;48.392;9.998;2023-04-21T02:21:37;18.48;;;7.93;;
9156;SDS011;4613;48.392;9.998;2023-04-21T02:24:27;17.63;;;7.47;;
9156;SDS011;4613;48.392;9.998;2023-04-21T02:27:16;12.05;;;7.82;;
9156;SDS011;4613;48.392;9.998;2023-04-21T02:30:06;13.48;;;7.32;;
9156;SDS011;4613;48.392;9.998;2023-04-21T02:32:56;14.52;;;7.13;;
9156;SDS011;4613;48.392;9.998;2023-04-21T02:35:46;13.57;;;7.30;;
9156;SDS011;4613;48.392;9.998;2023-04-21T02:38:35;11.82;;;6.00;;
9156;SDS011;4613;48.392;9.998;2023-04-21T02:41:24;10.38;;;5.90;;
9156;SDS011;4613;48.392;9.998;2023-04-21T02:44:14;11.18;;;6.85;;
9156;SDS011;4613;48.392;9.998;2023-04-21T02:47:03;11.25;;;6.55;;
9156;SDS011;4613;48.392;9.998;2023-04-21T02:49:53;13.15;;;6.65;;
9156;SDS011;4613;48.392;9.998;2023-04-21T02:52:42;11.75;;;6.25;;
9156;SDS011;4613;48.392;9.998;2023-04-21T02:55:31;13.40;;;7.10;;
9156;SDS011;4613;48.392;9.998;2023-04-21T02:58:21;12.70;;;6.38;;
9156;SDS011;4613;48.392;9.998;2023-04-21T03:01:10;12.88;;;7.03;;
9156;SDS011;4613;48.392;9.998;2023-04-21T03:03:59;11.32;;;6.18;;
9156;SDS011;4613;48.392;9.998;2023-04-21T03:06:49;12.07;;;7.03;;
9156;SDS011;4613;48.392;9.998;2023-04-21T03:09:39;11.65;;;6.28;;
9156;SDS011;4613;48.392;9.998;2023-04-21T03:12:29;16.17;;;8.23;;
9156;SDS011;4613;48.392;9.998;2023-04-21T03:15:18;14.25;;;7.78;;
9156;SDS011;4613;48.392;9.998;2023-04-21T03:18:07;15.35;;;8.30;;
9156;SDS011;4613;48.392;9.998;2023-04-21T03:21:00;21.52;;;11.02;;
9156;SDS011;4613;48.392;9.998;2023-04-21T03:23:49;28.75;;;11.93;;
9156;SDS011;4613;48.392;9.998;2023-04-21T03:26:40;21.30;;;10.43;;
9156;SDS011;4613;48.392;9.998;2023-04-21T03:29:30;26.13;;;12.15;;
9156;SDS011;4613;48.392;9.998;2023-04-21T03:32:19;25.30;;;11.95;;
9156;SDS011;4613;48.392;9.998;2023-04-21T03:35:09;18.85;;;8.60;;
9156;SDS011;4613;48.392;9.998;2023-04-21T03:37:59;13.80;;;7.40;;
9156;SDS011;4613;48.392;9.998;2023-04-21T03:40:48;17.48;;;6.40;;
9156;SDS011;4613;48.392;9.998;2023-04-21T03:43:38;14.25;;;7.60;;
9156;SDS011;4613;48.392;9.998;2023-04-21T03:46:27;15.18;;;7.00;;
9156;SDS011;4613;48.392;9.998;2023-04-21T03:49:16;13.65;;;7.43;;
9156;SDS011;4613;48.392;9.998;2023-04-21T03:52:06;14.23;;;7.20;;
9156;SDS011;4613;48.392;9.998;2023-04-21T03:54:55;14.38;;;6.93;;
9156;SDS011;4613;48.392;9.998;2023-04-21T03:57:44;18.00;;;8.50;;
9156;SDS011;4613;48.392;9.998;2023-04-21T04:00:33;18.23;;;8.50;;
9156;SDS011;4613;48.392;9.998;2023-04-21T04:03:23;20.83;;;9.13;;
9156;SDS011;4613;48.392;9.998;2023-04-21T04:06:12;24.23;;;10.80;;
9156;SDS011;4613;48.392;9.998;2023-04-21T04:09:02;20.27;;;10.93;;
9156;SDS011;4613;48.392;9.998;2023-04-21T04:11:52;24.13;;;12.27;;
9156;SDS011;4613;48.392;9.998;2023-04-21T04:14:41;30.15;;;13.52;;
9156;SDS011;4613;48.392;9.998;2023-04-21T04:17:30;20.92;;;8.98;;
9156;SDS011;4613;48.392;9.998;2023-04-21T04:20:19;12.60;;;7.03;;
9156;SDS011;4613;48.392;9.998;2023-04-21T04:23:09;14.35;;;6.68;;
9156;SDS011;4613;48.392;9.998;2023-04-21T04:25:59;11.57;;;6.05;;
9156;SDS011;4613;48.392;9.998;2023-04-21T04:28:49;11.07;;;5.68;;
9156;SDS011;4613;48.392;9.998;2023-04-21T04:31:40;12.85;;;6.03;;
9156;SDS011;4613;48.392;9.998;2023-04-21T04:34:29;31.63;;;7.30;;
9156;SDS011;4613;48.392;9.998;2023-04-21T04:37:19;13.10;;;5.75;;
9156;SDS011;4613;48.392;9.998;2023-04-21T04:40:09;10.05;;;5.72;;
9156;SDS011;4613;48.392;9.998;2023-04-21T04:43:03;6.85;;;3.40;;
9156;SDS011;4613;48.392;9.998;2023-04-21T04:45:52;8.37;;;5.03;;
9156;SDS011;4613;48.392;9.998;2023-04-21T04:48:43;11.03;;;5.67;;
9156;SDS011;4613;48.392;9.998;2023-04-21T04:51:32;15.30;;;6.77;;
9156;SDS011;4613;48.392;9.998;2023-04-21T04:54:22;11.53;;;6.10;;
9156;SDS011;4613;48.392;9.998;2023-04-21T04:57:13;16.97;;;8.20;;
9156;SDS011;4613;48.392;9.998;2023-04-21T05:00:03;15.47;;;7.50;;
9156;SDS011;4613;48.392;9.998;2023-04-21T05:02:59;12.37;;;7.03;;
9156;SDS011;4613;48.392;9.998;2023-04-21T05:05:48;12.80;;;6.83;;
9156;SDS011;4613;48.392;9.998;2023-04-21T05:08:37;12.23;;;6.97;;
9156;SDS011;4613;48.392;9.998;2023-04-21T05:11:29;13.67;;;6.97;;
9156;SDS011;4613;48.392;9.998;2023-04-21T05:14:18;11.83;;;6.67;;
9156;SDS011;4613;48.392;9.998;2023-04-21T05:17:08;14.27;;;6.15;;
9156;SDS011;4613;48.392;9.998;2023-04-21T05:19:57;15.67;;;6.40;;
9156;SDS011;4613;48.392;9.998;2023-04-21T05:22:48;13.32;;;6.45;;
9156;SDS011;4613;48.392;9.998;2023-04-21T05:25:38;16.70;;;7.15;;
9156;SDS011;4613;48.392;9.998;2023-04-21T05:28:28;16.83;;;7.32;;
9156;SDS011;4613;48.392;9.998;2023-04-21T05:31:18;12.35;;;6.13;;
9156;SDS011;4613;48.392;9.998;2023-04-21T05:34:08;20.15;;;8.10;;
9156;SDS011;4613;48.392;9.998;2023-04-21T05:36:57;20.92;;;7.40;;
9156;SDS011;4613;48.392;9.998;2023-04-21T05:39:47;21.23;;;9.57;;
9156;SDS011;4613;48.392;9.998;2023-04-21T05:42:36;21.08;;;9.23;;
9156;SDS011;4613;48.392;9.998;2023-04-21T05:45:25;20.88;;;8.20;;
9156;SDS011;4613;48.392;9.998;2023-04-21T05:48:16;24.50;;;9.88;;
9156;SDS011;4613;48.392;9.998;2023-04-21T05:51:12;17.15;;;9.18;;
9156;SDS011;4613;48.392;9.998;2023-04-21T05:54:05;21.83;;;8.57;;
9156;SDS011;4613;48.392;9.998;2023-04-21T05:56:54;22.35;;;10.10;;
9156;SDS011;4613;48.392;9.998;2023-04-21T05:59:44;19.95;;;8.98;;
9156;SDS011;4613;48.392;9.998;2023-04-21T06:02:34;18.37;;;8.37;;
9156;SDS011;4613;48.392;9.998;2023-04-21T06:05:23;21.93;;;8.93;;
9156;SDS011;4613;48.392;9.998;2023-04-21T06:08:12;18.50;;;9.50;;
9156;SDS011;4613;48.392;9.998;2023-04-21T06:11:01;20.60;;;8.68;;
9156;SDS011;4613;48.392;9.998;2023-04-21T06:13:50;19.73;;;8.73;;
9156;SDS011;4613;48.392;9.998;2023-04-21T06:16:42;16.75;;;8.02;;
9156;SDS011;4613;48.392;9.998;2023-04-21T06:19:36;14.97;;;8.27;;
9156;SDS011;4613;48.392;9.998;2023-04-21T06:22:27;19.80;;;8.47;;
9156;SDS011;4613;48.392;9.998;2023-04-21T06:25:17;27.03;;;12.23;;
9156;SDS011;4613;48.392;9.998;2023-04-21T06:28:06;30.03;;;13.43;;
9156;SDS011;4613;48.392;9.998;2023-04-21T06:30:56;30.07;;;12.97;;
9156;SDS011;4613;48.392;9.998;2023-04-21T06:33:46;18.67;;;8.90;;
9156;SDS011;4613;48.392;9.998;2023-04-21T06:36:35;12.30;;;7.07;;
9156;SDS011;4613;48.392;9.998;2023-04-21T06:39:25;12.20;;;7.03;;
9156;SDS011;4613;48.392;9.998;2023-04-21T06:42:17;12.90;;;6.73;;
9156;SDS011;4613;48.392;9.998;2023-04-21T06:45:07;9.80;;;6.10;;
9156;SDS011;4613;48.392;9.998;2023-04-21T06:47:57;10.87;;;5.77;;
9156;SDS011;4613;48.392;9.998;2023-04-21T06:50:46;11.77;;;6.38;;
9156;SDS011;4613;48.392;9.998;2023-04-21T06:53:35;12.37;;;7.13;;
9156;SDS011;4613;48.392;9.998;2023-04-21T06:56:26;10.93;;;5.43;;
9156;SDS011;4613;48.392;9.998;2023-04-21T06:59:15;13.13;;;5.93;;
9156;SDS011;4613;48.392;9.998;2023-04-21T07:02:04;11.57;;;6.60;;
9156;SDS011;4613;48.392;9.998;2023-04-21T07:04:53;10.87;;;5.10;;
9156;SDS011;4613;48.392;9.998;2023-04-21T07:07:42;12.80;;;5.60;;
9156;SDS011;4613;48.392;9.998;2023-04-21T07:10:31;11.80;;;6.10;;
9156;SDS011;4613;48.392;9.998;2023-04-21T07:13:20;9.07;;;5.30;;
9156;SDS011;4613;48.392;9.998;2023-04-21T07:16:09;8.03;;;5.27;;
9156;SDS011;4613;48.392;9.998;2023-04-21T07:18:58;10.87;;;6.33;;
9156;SDS011;4613;48.392;9.998;2023-04-21T07:21:48;9.77;;;5.33;;
9156;SDS011;4613;48.392;9.998;2023-04-21T07:24:38;9.90;;;6.10;;
9156;SDS011;4613;48.392;9.998;2023-04-21T07:27:27;8.40;;;5.80;;
9156;SDS011;4613;48.392;9.998;2023-04-21T07:30:16;11.93;;;5.90;;
9156;SDS011;4613;48.392;9.998;2023-04-21T07:33:06;10.33;;;5.43;;
9156;SDS011;4613;48.392;9.998;2023-04-21T07:35:56;11.27;;;5.80;;
9156;SDS011;4613;48.392;9.998;2023-04-21T07:38:46;9.87;;;5.43;;
9156;SDS011;4613;48.392;9.998;2023-04-21T07:41:35;12.17;;;6.67;;
9156;SDS011;4613;48.392;9.998;2023-04-21T07:44:25;11.37;;;6.00;;
9156;SDS011;4613;48.392;9.998;2023-04-21T07:47:17;10.37;;;5.23;;
9156;SDS011;4613;48.392;9.998;2023-04-21T07:50:07;7.90;;;5.03;;
9156;SDS011;4613;48.392;9.998;2023-04-21T07:52:57;10.03;;;5.80;;
9156;SDS011;4613;48.392;9.998;2023-04-21T07:55:46;8.40;;;4.57;;
9156;SDS011;4613;48.392;9.998;2023-04-21T07:58:36;10.17;;;5.60;;
9156;SDS011;4613;48.392;9.998;2023-04-21T08:01:25;9.37;;;4.97;;
9156;SDS011;4613;48.392;9.998;2023-04-21T08:04:15;14.03;;;6.67;;
9156;SDS011;4613;48.392;9.998;2023-04-21T08:07:05;9.20;;;5.33;;
9156;SDS011;4613;48.392;9.998;2023-04-21T08:09:54;10.57;;;5.60;;
9156;SDS011;4613;48.392;9.998;2023-04-21T08:12:44;11.93;;;5.33;;
9156;SDS011;4613;48.392;9.998;2023-04-21T08:15:33;7.83;;;5.10;;
9156;SDS011;4613;48.392;9.998;2023-04-21T08:18:23;12.53;;;5.13;;
9156;SDS011;4613;48.392;9.998;2023-04-21T08:21:12;8.47;;;5.03;;
9156;SDS011;4613;48.392;9.998;2023-04-21T08:24:02;7.53;;;5.07;;
9156;SDS011;4613;48.392;9.998;2023-04-21T08:26:52;11.17;;;5.30;;
9156;SDS011;4613;48.392;9.998;2023-04-21T08:29:41;9.73;;;5.73;;
9156;SDS011;4613;48.392;9.998;2023-04-21T08:32:31;8.67;;;4.80;;
9156;SDS011;4613;48.392;9.998;2023-04-21T08:35:20;8.50;;;5.03;;
9156;SDS011;4613;48.392;9.998;2023-04-21T08:38:09;8.17;;;4.80;;
9156;SDS011;4613;48.392;9.998;2023-04-21T08:40:58;9.17;;;5.40;;
9156;SDS011;4613;48.392;9.998;2023-04-21T08:43:48;8.97;;;5.20;;
9156;SDS011;4613;48.392;9.998;2023-04-21T08:46:38;9.97;;;4.87;;
9156;SDS011;4613;48.392;9.998;2023-04-21T08:49:28;10.17;;;4.97;;
9156;SDS011;4613;48.392;9.998;2023-04-21T08:52:19;9.87;;;4.70;;
9156;SDS011;4613;48.392;9.998;2023-04-21T08:55:09;7.63;;;4.97;;
9156;SDS011;4613;48.392;9.998;2023-04-21T08:58:04;9.93;;;4.97;;
9156;SDS011;4613;48.392;9.998;2023-04-21T09:00:54;9.63;;;5.03;;
9156;SDS011;4613;48.392;9.998;2023-04-21T09:03:44;7.97;;;4.83;;
9156;SDS011;4613;48.392;9.998;2023-04-21T09:06:39;10.03;;;5.37;;
9156;SDS011;4613;48.392;9.998;2023-04-21T09:09:32;9.53;;;5.17;;
9156;SDS011;4613;48.392;9.998;2023-04-21T09:12:23;8.23;;;4.63;;
9156;SDS011;4613;48.392;9.998;2023-04-21T09:15:12;8.57;;;5.73;;
9156;SDS011;4613;48.392;9.998;2023-04-21T09:18:01;8.50;;;5.37;;
9156;SDS011;4613;48.392;9.998;2023-04-21T09:20:53;8.83;;;5.00;;
9156;SDS011;4613;48.392;9.998;2023-04-21T09:24:03;9.30;;;5.50;;
9156;SDS011;4613;48.392;9.998;2023-04-21T09:26:54;6.97;;;4.83;;
9156;SDS011;4613;48.392;9.998;2023-04-21T09:29:46;10.03;;;5.47;;
9156;SDS011;4613;48.392;9.998;2023-04-21T09:32:39;11.30;;;5.30;;
9156;SDS011;4613;48.392;9.998;2023-04-21T09:35:31;9.33;;;5.97;;
9156;SDS011;4613;48.392;9.998;2023-04-21T09:38:21;8.33;;;5.20;;
9156;SDS011;4613;48.392;9.998;2023-04-21T09:41:11;9.00;;;5.77;;
9156;SDS011;4613;48.392;9.998;2023-04-21T09:44:05;7.73;;;4.93;;
9156;SDS011;4613;48.392;9.998;2023-04-21T09:47:01;8.67;;;5.13;;
9156;SDS011;4613;48.392;9.998;2023-04-21T09:49:52;9.03;;;5.67;;
9156;SDS011;4613;48.392;9.998;2023-04-21T09:52:43;9.40;;;5.90;;
9156;SDS011;4613;48.392;9.998;2023-04-21T09:55:36;10.80;;;5.20;;
9156;SDS011;4613;48.392;9.998;2023-04-21T09:58:26;8.37;;;5.17;;
9156;SDS011;4613;48.392;9.998;2023-04-21T10:01:20;10.57;;;5.70;;
9156;SDS011;4613;48.392;9.998;2023-04-21T10:04:14;6.20;;;4.70;;
9156;SDS011;4613;48.392;9.998;2023-04-21T10:07:05;6.73;;;4.70;;
9156;SDS011;4613;48.392;9.998;2023-04-21T10:09:55;8.03;;;4.37;;
9156;SDS011;4613;48.392;9.998;2023-04-21T10:12:51;6.07;;;4.53;;
9156;SDS011;4613;48.392;9.998;2023-04-21T10:15:41;10.90;;;5.93;;
9156;SDS011;4613;48.392;9.998;2023-04-21T10:18:31;7.00;;;4.67;;
9156;SDS011;4613;48.392;9.998;2023-04-21T10:21:24;8.70;;;5.20;;
9156;SDS011;4613;48.392;9.998;2023-04-21T10:24:14;7.27;;;4.90;;
9156;SDS011;4613;48.392;9.998;2023-04-21T10:27:08;6.73;;;5.03;;
9156;SDS011;4613;48.392;9.998;2023-04-21T10:30:00;6.90;;;5.00;;
9156;SDS011;4613;48.392;9.998;2023-04-21T10:33:05;7.63;;;4.40;;
9156;SDS011;4613;48.392;9.998;2023-04-21T10:35:58;7.30;;;4.47;;
9156;SDS011;4613;48.392;9.998;2023-04-21T10:38:53;6.20;;;4.50;;
9156;SDS011;4613;48.392;9.998;2023-04-21T10:41:44;5.37;;;4.63;;
9156;SDS011;4613;48.392;9.998;2023-04-21T10:44:34;6.13;;;4.30;;
9156;SDS011;4613;48.392;9.998;2023-04-21T10:47:25;6.30;;;4.60;;
9156;SDS011;4613;48.392;9.998;2023-04-21T10:50:28;6.63;;;4.43;;
9156;SDS011;4613;48.392;9.998;2023-04-21T10:53:18;6.97;;;4.23;;
9156;SDS011;4613;48.392;9.998;2023-04-21T10:56:13;6.03;;;4.30;;
9156;SDS011;4613;48.392;9.998;2023-04-21T10:59:03;5.30;;;4.07;;
9156;SDS011;4613;48.392;9.998;2023-04-21T11:01:52;7.63;;;5.10;;
9156;SDS011;4613;48.392;9.998;2023-04-21T11:04:42;4.97;;;4.33;;
9156;SDS011;4613;48.392;9.998;2023-04-21T11:07:35;5.80;;;4.03;;
9156;SDS011;4613;48.392;9.998;2023-04-21T11:10:25;5.20;;;3.90;;
9156;SDS011;4613;48.392;9.998;2023-04-21T11:13:14;6.20;;;4.27;;
9156;SDS011;4613;48.392;9.998;2023-04-21T11:16:08;6.43;;;4.37;;
9156;SDS011;4613;48.392;9.998;2023-04-21T11:18:57;4.80;;;3.90;;
9156;SDS011;4613;48.392;9.998;2023-04-21T11:21:47;4.20;;;3.53;;
9156;SDS011;4613;48.392;9.998;2023-04-21T11:24:37;4.93;;;4.20;;
9156;SDS011;4613;48.392;9.998;2023-04-21T11:27:31;6.17;;;4.00;;
9156;SDS011;4613;48.392;9.998;2023-04-21T11:30:29;5.70;;;3.80;;
9156;SDS011;4613;48.392;9.998;2023-04-21T11:33:29;5.70;;;4.00;;
9156;SDS011;4613;48.392;9.998;2023-04-21T11:36:23;4.97;;;3.97;;
9156;SDS011;4613;48.392;9.998;2023-04-21T11:39:13;4.23;;;3.43;;
9156;SDS011;4613;48.392;9.998;2023-04-21T11:42:05;4.57;;;3.70;;
9156;SDS011;4613;48.392;9.998;2023-04-21T11:44:55;5.10;;;3.60;;
9156;SDS011;4613;48.392;9.998;2023-04-21T11:47:46;5.20;;;3.70;;
9156;SDS011;4613;48.392;9.998;2023-04-21T11:50:36;4.27;;;3.47;;
9156;SDS011;4613;48.392;9.998;2023-04-21T11:53:27;6.83;;;3.60;;
9156;SDS011;4613;48.392;9.998;2023-04-21T11:56:19;4.50;;;3.50;;
9156;SDS011;4613;48.392;9.998;2023-04-21T11:59:11;5.10;;;3.93;;
9156;SDS011;4613;48.392;9.998;2023-04-21T12:02:01;6.73;;;4.10;;
9156;SDS011;4613;48.392;9.998;2023-04-21T12:07:50;5.33;;;3.93;;
9156;SDS011;4613;48.392;9.998;2023-04-21T12:10:44;3.33;;;3.03;;
9156;SDS011;4613;48.392;9.998;2023-04-21T12:13:34;3.73;;;3.07;;
9156;SDS011;4613;48.392;9.998;2023-04-21T12:16:27;3.30;;;2.90;;
9156;SDS011;4613;48.392;9.998;2023-04-21T12:22:36;3.60;;;3.03;;
9156;SDS011;4613;48.392;9.998;2023-04-21T12:25:25;5.43;;;3.37;;
9156;SDS011;4613;48.392;9.998;2023-04-21T12:28:15;3.77;;;3.17;;
9156;SDS011;4613;48.392;9.998;2023-04-21T12:31:06;3.97;;;3.17;;
9156;SDS011;4613;48.392;9.998;2023-04-21T12:33:55;4.13;;;3.00;;
9156;SDS011;4613;48.392;9.998;2023-04-21T12:36:45;4.10;;;3.30;;
9156;SDS011;4613;48.392;9.998;2023-04-21T12:39:34;3.70;;;3.03;;
9156;SDS011;4613;48.392;9.998;2023-04-21T12:42:24;4.17;;;3.40;;
9156;SDS011;4613;48.392;9.998;2023-04-21T12:45:13;4.23;;;3.30;;
9156;SDS011;4613;48.392;9.998;2023-04-21T12:48:03;3.67;;;2.90;;
9156;SDS011;4613;48.392;9.998;2023-04-21T12:50:53;4.37;;;2.77;;
9156;SDS011;4613;48.392;9.998;2023-04-21T12:53:43;3.60;;;2.90;;
9156;SDS011;4613;48.392;9.998;2023-04-21T12:56:33;3.80;;;3.10;;
9156;SDS011;4613;48.392;9.998;2023-04-21T12:59:22;3.50;;;2.90;;
9156;SDS011;4613;48.392;9.998;2023-04-21T13:02:11;4.20;;;2.63;;
9156;SDS011;4613;48.392;9.998;2023-04-21T13:05:01;3.13;;;2.80;;
9156;SDS011;4613;48.392;9.998;2023-04-21T13:07:52;3.37;;;2.43;;
9156;SDS011;4613;48.392;9.998;2023-04-21T13:10:42;2.43;;;2.10;;
9156;SDS011;4613;48.392;9.998;2023-04-21T13:13:33;2.33;;;2.10;;
9156;SDS011;4613;48.392;9.998;2023-04-21T13:16:22;3.57;;;2.73;;
9156;SDS011;4613;48.392;9.998;2023-04-21T13:19:12;2.93;;;2.63;;
9156;SDS011;4613;48.392;9.998;2023-04-21T13:22:01;2.50;;;2.30;;
9156;SDS011;4613;48.392;9.998;2023-04-21T13:24:51;3.83;;;2.90;;
9156;SDS011;4613;48.392;9.998;2023-04-21T13:27:40;4.13;;;3.20;;
9156;SDS011;4613;48.392;9.998;2023-04-21T13:30:29;3.47;;;3.07;;
9156;SDS011;4613;48.392;9.998;2023-04-21T13:33:19;3.50;;;3.00;;
9156;SDS011;4613;48.392;9.998;2023-04-21T13:36:09;4.00;;;2.80;;
9156;SDS011;4613;48.392;9.998;2023-04-21T13:39:00;3.10;;;2.70;;
9156;SDS011;4613;48.392;9.998;2023-04-21T13:41:49;5.33;;;3.03;;
9156;SDS011;4613;48.392;9.998;2023-04-21T13:44:38;4.00;;;3.00;;
9156;SDS011;4613;48.392;9.998;2023-04-21T13:47:28;3.37;;;3.07;;
9156;SDS011;4613;48.392;9.998;2023-04-21T13:50:19;3.97;;;2.83;;
9156;SDS011;4613;48.392;9.998;2023-04-21T13:53:09;3.90;;;3.07;;
9156;SDS011;4613;48.392;9.998;2023-04-21T13:55:59;4.37;;;3.20;;
9156;SDS011;4613;48.392;9.998;2023-04-21T13:58:48;5.50;;;3.30;;
9156;SDS011;4613;48.392;9.998;2023-04-21T14:01:38;3.93;;;3.00;;
9156;SDS011;4613;48.392;9.998;2023-04-21T14:04:28;3.00;;;2.60;;
9156;SDS011;4613;48.392;9.998;2023-04-21T14:07:18;5.53;;;3.47;;
9156;SDS011;4613;48.392;9.998;2023-04-21T14:10:08;4.30;;;3.33;;
9156;SDS011;4613;48.392;9.998;2023-04-21T14:12:59;4.47;;;3.47;;
9156;SDS011;4613;48.392;9.998;2023-04-21T14:15:49;4.50;;;3.43;;
9156;SDS011;4613;48.392;9.998;2023-04-21T14:18:38;3.53;;;3.17;;
9156;SDS011;4613;48.392;9.998;2023-04-21T14:21:32;4.47;;;3.10;;
9156;SDS011;4613;48.392;9.998;2023-04-21T14:24:22;5.80;;;3.80;;
9156;SDS011;4613;48.392;9.998;2023-04-21T14:27:11;5.40;;;3.90;;
9156;SDS011;4613;48.392;9.998;2023-04-21T14:30:00;5.30;;;3.63;;
9156;SDS011;4613;48.392;9.998;2023-04-21T14:32:50;5.17;;;4.30;;
9156;SDS011;4613;48.392;9.998;2023-04-21T14:35:39;3.93;;;3.53;;
9156;SDS011;4613;48.392;9.998;2023-04-21T14:38:28;6.97;;;4.70;;
9156;SDS011;4613;48.392;9.998;2023-04-21T14:41:18;6.53;;;4.30;;
9156;SDS011;4613;48.392;9.998;2023-04-21T14:44:07;6.10;;;4.27;;
9156;SDS011;4613;48.392;9.998;2023-04-21T14:46:56;8.70;;;5.40;;
9156;SDS011;4613;48.392;9.998;2023-04-21T14:49:45;4.40;;;3.50;;
9156;SDS011;4613;48.392;9.998;2023-04-21T14:52:37;5.87;;;4.27;;
9156;SDS011;4613;48.392;9.998;2023-04-21T14:55:27;4.87;;;4.13;;
9156;SDS011;4613;48.392;9.998;2023-04-21T14:58:16;5.30;;;4.00;;
9156;SDS011;4613;48.392;9.998;2023-04-21T15:01:06;4.90;;;3.67;;
9156;SDS011;4613;48.392;9.998;2023-04-21T15:03:56;5.40;;;4.10;;
9156;SDS011;4613;48.392;9.998;2023-04-21T15:06:47;6.03;;;3.67;;
9156;SDS011;4613;48.392;9.998;2023-04-21T15:09:36;5.17;;;3.60;;
9156;SDS011;4613;48.392;9.998;2023-04-21T15:12:26;5.70;;;3.70;;
9156;SDS011;4613;48.392;9.998;2023-04-21T15:15:16;3.40;;;3.00;;
9156;SDS011;4613;48.392;9.998;2023-04-21T15:18:06;4.57;;;3.13;;
9156;SDS011;4613;48.392;9.998;2023-04-21T15:20:56;5.33;;;3.87;;
9156;SDS011;4613;48.392;9.998;2023-04-21T15:23:45;4.40;;;3.73;;
9156;SDS011;4613;48.392;9.998;2023-04-21T15:26:34;3.63;;;2.93;;
9156;SDS011;4613;48.392;9.998;2023-04-21T15:29:24;4.10;;;3.20;;
9156;SDS011;4613;48.392;9.998;2023-04-21T15:32:16;4.60;;;3.47;;
9156;SDS011;4613;48.392;9.998;2023-04-21T15:35:06;5.80;;;4.07;;
9156;SDS011;4613;48.392;9.998;2023-04-21T15:37:56;7.53;;;4.83;;
9156;SDS011;4613;48.392;9.998;2023-04-21T15:40:45;6.33;;;4.57;;
9156;SDS011;4613;48.392;9.998;2023-04-21T15:43:34;3.50;;;2.97;;
9156;SDS011;4613;48.392;9.998;2023-04-21T15:46:24;4.77;;;3.80;;
9156;SDS011;4613;48.392;9.998;2023-04-21T15:49:13;4.67;;;3.47;;
9156;SDS011;4613;48.392;9.998;2023-04-21T15:52:02;5.33;;;3.97;;
9156;SDS011;4613;48.392;9.998;2023-04-21T15:54:53;4.40;;;3.60;;
9156;SDS011;4613;48.392;9.998;2023-04-21T15:57:43;3.83;;;3.43;;
9156;SDS011;4613;48.392;9.998;2023-04-21T16:00:33;4.17;;;3.40;;
9156;SDS011;4613;48.392;9.998;2023-04-21T16:03:23;3.90;;;3.00;;
9156;SDS011;4613;48.392;9.998;2023-04-21T16:06:12;4.37;;;3.27;;
9156;SDS011;4613;48.392;9.998;2023-04-21T16:09:02;3.70;;;2.80;;
9156;SDS011;4613;48.392;9.998;2023-04-21T16:11:51;3.60;;;3.17;;
9156;SDS011;4613;48.392;9.998;2023-04-21T16:14:40;3.57;;;2.90;;
9156;SDS011;4613;48.392;9.998;2023-04-21T16:17:29;3.83;;;2.80;;
9156;SDS011;4613;48.392;9.998;2023-04-21T16:20:19;2.57;;;2.37;;
9156;SDS011;4613;48.392;9.998;2023-04-21T16:23:08;2.47;;;2.20;;
9156;SDS011;4613;48.392;9.998;2023-04-21T16:25:58;2.00;;;1.80;;
9156;SDS011;4613;48.392;9.998;2023-04-21T16:28:47;2.60;;;2.40;;
9156;SDS011;4613;48.392;9.998;2023-04-21T16:31:39;2.30;;;2.03;;
9156;SDS011;4613;48.392;9.998;2023-04-21T16:34:28;3.07;;;1.80;;
9156;SDS011;4613;48.392;9.998;2023-04-21T16:37:18;2.20;;;2.00;;
9156;SDS011;4613;48.392;9.998;2023-04-21T16:40:07;1.80;;;1.70;;
9156;SDS011;4613;48.392;9.998;2023-04-21T16:42:57;2.07;;;1.93;;
9156;SDS011;4613;48.392;9.998;2023-04-21T16:45:47;2.73;;;2.10;;
9156;SDS011;4613;48.392;9.998;2023-04-21T16:48:36;1.90;;;1.80;;
9156;SDS011;4613;48.392;9.998;2023-04-21T16:51:25;2.87;;;1.93;;
9156;SDS011;4613;48.392;9.998;2023-04-21T16:54:16;1.90;;;1.77;;
9156;SDS011;4613;48.392;9.998;2023-04-21T16:57:06;2.07;;;1.67;;
9156;SDS011;4613;48.392;9.998;2023-04-21T16:59:55;2.33;;;2.13;;
9156;SDS011;4613;48.392;9.998;2023-04-21T17:02:48;2.77;;;2.13;;
9156;SDS011;4613;48.392;9.998;2023-04-21T17:05:38;2.40;;;2.20;;
9156;SDS011;4613;48.392;9.998;2023-04-21T17:08:27;2.83;;;2.23;;
9156;SDS011;4613;48.392;9.998;2023-04-21T17:11:16;3.20;;;2.80;;
9156;SDS011;4613;48.392;9.998;2023-04-21T17:14:05;2.97;;;2.67;;
9156;SDS011;4613;48.392;9.998;2023-04-21T17:16:55;3.33;;;2.33;;
9156;SDS011;4613;48.392;9.998;2023-04-21T17:19:45;2.37;;;2.17;;
9156;SDS011;4613;48.392;9.998;2023-04-21T17:22:34;3.47;;;2.30;;
9156;SDS011;4613;48.392;9.998;2023-04-21T17:25:24;2.80;;;2.10;;
9156;SDS011;4613;48.392;9.998;2023-04-21T17:28:14;2.37;;;2.17;;
9156;SDS011;4613;48.392;9.998;2023-04-21T17:31:03;2.97;;;2.37;;
9156;SDS011;4613;48.392;9.998;2023-04-21T17:33:53;3.10;;;2.50;;
9156;SDS011;4613;48.392;9.998;2023-04-21T17:36:44;3.50;;;2.30;;